createdAt,value
2018-08-03T00:03:54.260Z,20.30
2018-08-03T00:08:50.609Z,20.30
2018-08-03T00:11:18.756Z,20.30
2018-08-03T00:13:46.901Z,20.40
2018-08-03T00:16:15.057Z,20.40
2018-08-03T00:18:43.194Z,20.40
2018-08-03T00:21:11.340Z,20.40
2018-08-03T00:23:39.484Z,20.50
2018-08-03T00:26:07.653Z,20.50
2018-08-03T00:28:35.805Z,20.40
2018-08-03T00:31:03.941Z,20.30
2018-08-03T00:33:32.077Z,20.30
2018-08-03T00:36:00.224Z,20.20
2018-08-03T00:38:28.371Z,20.20
2018-08-03T00:40:56.524Z,20.20
2018-08-03T00:43:24.665Z,20.10
2018-08-03T00:48:20.724Z,20.10
2018-08-03T00:50:48.906Z,20.00
2018-08-03T00:53:17.040Z,20.00
2018-08-03T00:55:45.184Z,20.00
2018-08-03T00:58:13.320Z,20.00
2018-08-03T01:00:41.472Z,19.90
2018-08-03T01:05:37.840Z,19.80
2018-08-03T01:08:05.996Z,19.80
2018-08-03T01:10:34.145Z,19.80
2018-08-03T01:13:02.289Z,19.70
2018-08-03T01:15:30.451Z,19.70
2018-08-03T01:17:58.596Z,19.60
2018-08-03T01:22:54.653Z,19.60
2018-08-03T01:25:22.801Z,19.50
2018-08-03T01:27:50.988Z,19.50
2018-08-03T01:32:48.063Z,19.50
2018-08-03T01:37:44.178Z,19.50
2018-08-03T01:40:12.278Z,19.50
2018-08-03T01:45:08.345Z,19.50
2018-08-03T01:47:36.490Z,19.50
2018-08-03T01:52:32.744Z,19.50
2018-08-03T01:57:28.981Z,19.50
2018-08-03T02:02:25.103Z,19.50
2018-08-03T02:04:53.265Z,19.50
2018-08-03T02:07:21.808Z,19.50
2018-08-03T02:09:49.961Z,19.40
2018-08-03T02:14:46.034Z,19.40
2018-08-03T02:17:14.181Z,19.30
2018-08-03T02:22:10.237Z,19.20
2018-08-03T02:24:38.396Z,19.20
2018-08-03T02:29:34.477Z,19.20
2018-08-03T02:32:02.621Z,19.30
2018-08-03T02:34:30.772Z,19.20
2018-08-03T02:36:58.916Z,19.20
2018-08-03T02:39:27.077Z,19.20
2018-08-03T02:41:55.216Z,19.10
2018-08-03T02:46:51.397Z,19.10
2018-08-03T02:49:19.540Z,19.00
2018-08-03T02:51:47.685Z,19.00
2018-08-03T02:54:15.843Z,18.90
2018-08-03T02:56:43.981Z,18.90
2018-08-03T02:59:12.132Z,19.00
2018-08-03T03:04:08.201Z,18.90
2018-08-03T03:06:36.377Z,18.90
2018-08-03T03:09:07.559Z,19.00
2018-08-03T03:11:35.696Z,19.00
2018-08-03T03:14:04.049Z,19.00
2018-08-03T03:19:00.221Z,19.10
2018-08-03T03:21:28.353Z,19.10
2018-08-03T03:26:24.528Z,19.10
2018-08-03T03:28:52.680Z,19.10
2018-08-03T03:33:48.929Z,19.10
2018-08-03T03:38:45.009Z,19.10
2018-08-03T03:41:13.148Z,19.10
2018-08-03T03:46:09.428Z,19.00
2018-08-03T03:48:37.583Z,19.00
2018-08-03T03:51:05.782Z,19.00
2018-08-03T03:53:33.900Z,19.00
2018-08-03T03:56:02.049Z,19.00
2018-08-03T03:58:30.201Z,19.00
2018-08-03T04:00:58.340Z,18.90
2018-08-03T04:05:54.865Z,18.90
2018-08-03T04:08:23.005Z,18.90
2018-08-03T04:10:51.184Z,18.90
2018-08-03T04:13:19.313Z,18.90
2018-08-03T04:15:47.460Z,18.90
2018-08-03T04:18:18.743Z,19.00
2018-08-03T04:23:14.849Z,19.10
2018-08-03T04:25:43.038Z,19.10
2018-08-03T04:28:11.185Z,19.10
2018-08-03T04:30:39.521Z,19.20
2018-08-03T04:35:35.637Z,19.30
2018-08-03T04:38:03.808Z,19.30
2018-08-03T04:40:31.960Z,19.40
2018-08-03T04:43:00.097Z,19.40
2018-08-03T04:45:28.277Z,19.40
2018-08-03T04:47:56.452Z,19.40
2018-08-03T04:50:24.601Z,19.50
2018-08-03T04:57:48.948Z,19.70
2018-08-03T05:00:17.104Z,19.70
2018-08-03T05:02:45.243Z,19.80
2018-08-03T05:05:13.393Z,19.90
2018-08-03T05:07:41.534Z,20.00
2018-08-03T05:10:09.693Z,20.10
2018-08-03T05:15:06.494Z,20.30
2018-08-03T05:17:34.628Z,20.40
2018-08-03T05:22:30.689Z,20.60
2018-08-03T05:24:58.856Z,20.70
2018-08-03T05:27:26.997Z,20.70
2018-08-03T05:29:55.153Z,20.80
2018-08-03T05:32:23.293Z,20.90
2018-08-03T05:34:51.461Z,21.00
2018-08-03T05:37:19.724Z,21.30
2018-08-03T05:42:15.797Z,22.50
2018-08-03T05:44:43.952Z,23.10
2018-08-03T05:47:12.089Z,23.50
2018-08-03T05:49:40.241Z,23.80
2018-08-03T05:52:08.380Z,23.90
2018-08-03T05:54:36.533Z,24.00
2018-08-03T05:59:32.588Z,23.60
2018-08-03T06:02:00.748Z,23.50
2018-08-03T06:06:56.812Z,23.50
2018-08-03T06:11:52.881Z,23.40
2018-08-03T06:14:21.037Z,23.40
2018-08-03T06:16:49.173Z,23.40
2018-08-03T06:19:17.312Z,23.50
2018-08-03T06:21:45.453Z,23.50
2018-08-03T06:24:13.725Z,23.50
2018-08-03T06:29:09.866Z,23.60
2018-08-03T06:34:06.069Z,23.70
2018-08-03T06:36:34.246Z,23.80
2018-08-03T06:39:02.373Z,23.80
2018-08-03T06:41:30.528Z,23.90
2018-08-03T06:46:26.585Z,24.00
2018-08-03T06:48:54.724Z,24.10
2018-08-03T06:51:22.878Z,24.20
2018-08-03T06:53:51.025Z,24.20
2018-08-03T06:56:19.172Z,24.30
2018-08-03T07:01:15.232Z,24.50
2018-08-03T07:03:43.380Z,24.60
2018-08-03T07:08:39.444Z,24.80
2018-08-03T07:11:07.841Z,24.90
2018-08-03T07:13:35.980Z,25.00
2018-08-03T07:18:32.062Z,25.20
2018-08-03T07:21:00.209Z,25.30
2018-08-03T07:25:56.282Z,25.50
2018-08-03T07:28:24.419Z,25.60
2018-08-03T07:33:20.489Z,26.00
2018-08-03T07:35:48.637Z,26.10
2018-08-03T07:43:12.720Z,26.50
2018-08-03T07:45:40.828Z,26.50
2018-08-03T07:50:36.885Z,26.60
2018-08-03T07:53:05.024Z,26.70
2018-08-03T07:55:33.179Z,26.70
2018-08-03T07:58:04.258Z,26.90
2018-08-03T08:00:32.671Z,27.00
2018-08-03T08:03:00.820Z,27.00
2018-08-03T08:07:56.878Z,27.00
2018-08-03T08:10:25.063Z,27.20
2018-08-03T08:12:53.204Z,27.30
2018-08-03T08:17:51.049Z,27.50
2018-08-03T08:20:19.277Z,27.60
2018-08-03T08:22:47.416Z,27.60
2018-08-03T08:25:16.058Z,27.70
2018-08-03T08:27:44.205Z,27.70
2018-08-03T08:32:40.257Z,27.80
2018-08-03T08:35:08.405Z,27.80
2018-08-03T08:37:36.545Z,27.70
2018-08-03T08:40:05.457Z,27.90
2018-08-03T08:42:33.601Z,28.00
2018-08-03T08:45:01.751Z,28.10
2018-08-03T08:47:29.938Z,28.20
2018-08-03T08:49:58.082Z,28.30
2018-08-03T08:54:54.260Z,28.30
2018-08-03T08:57:22.354Z,28.30
2018-08-03T08:59:50.505Z,28.30
2018-08-03T09:02:18.988Z,28.40
2018-08-03T09:04:47.133Z,28.50
2018-08-03T09:09:43.209Z,28.80
2018-08-03T09:12:11.348Z,29.00
2018-08-03T09:14:39.561Z,29.00
2018-08-03T09:17:07.726Z,29.00
2018-08-03T09:19:35.872Z,29.00
2018-08-03T09:22:04.058Z,29.20
2018-08-03T09:24:32.225Z,29.40
2018-08-03T09:27:00.308Z,29.40
2018-08-03T09:29:28.508Z,29.40
2018-08-03T09:31:56.664Z,29.60
2018-08-03T09:34:24.814Z,29.60
2018-08-03T09:36:52.964Z,29.80
2018-08-03T09:39:21.113Z,29.80
2018-08-03T09:41:49.276Z,29.90
2018-08-03T09:44:17.429Z,30.00
2018-08-03T09:46:45.573Z,29.90
2018-08-03T09:49:13.730Z,30.00
2018-08-03T09:51:41.871Z,30.00
2018-08-03T09:54:10.018Z,30.10
2018-08-03T09:59:06.104Z,30.10
2018-08-03T10:01:34.258Z,30.30
2018-08-03T10:04:02.406Z,30.40
2018-08-03T10:08:58.464Z,30.30
2018-08-03T10:11:26.609Z,30.30
2018-08-03T10:13:54.760Z,30.20
2018-08-03T10:16:22.912Z,30.40
2018-08-03T10:18:51.063Z,30.30
2018-08-03T10:21:19.201Z,30.40
2018-08-03T10:23:47.429Z,30.60
2018-08-03T10:26:15.561Z,30.70
2018-08-03T10:28:43.779Z,30.80
2018-08-03T10:31:11.911Z,30.80
2018-08-03T10:33:40.062Z,30.80
2018-08-03T10:36:08.209Z,30.70
2018-08-03T10:38:36.341Z,30.80
2018-08-03T10:41:04.530Z,30.80
2018-08-03T10:43:32.693Z,30.60
2018-08-03T10:48:29.188Z,30.40
2018-08-03T10:50:57.333Z,30.40
2018-08-03T10:53:25.513Z,30.00
2018-08-03T10:55:53.703Z,29.80
2018-08-03T10:58:21.895Z,29.90
2018-08-03T11:00:49.998Z,29.90
2018-08-03T11:03:18.140Z,29.90
2018-08-03T11:05:46.276Z,29.90
2018-08-03T11:08:14.432Z,29.60
2018-08-03T11:10:42.572Z,29.40
2018-08-03T11:13:10.725Z,29.40
2018-08-03T11:15:38.877Z,29.40
2018-08-03T11:18:07.071Z,29.30
2018-08-03T11:20:35.209Z,29.20
2018-08-03T11:23:03.344Z,29.20
2018-08-03T11:25:31.599Z,29.50
2018-08-03T11:27:59.741Z,29.80
2018-08-03T11:32:55.820Z,29.80
2018-08-03T11:35:23.999Z,29.80
2018-08-03T11:37:52.132Z,29.90
2018-08-03T11:42:48.412Z,29.90
2018-08-03T11:45:16.560Z,29.70
2018-08-03T11:47:44.709Z,29.80
2018-08-03T11:50:12.850Z,30.20
2018-08-03T11:52:41.009Z,30.50
2018-08-03T11:55:09.149Z,30.70
2018-08-03T12:00:05.420Z,30.60
2018-08-03T12:02:33.578Z,30.30
2018-08-03T12:07:29.737Z,30.10
2018-08-03T12:09:57.885Z,29.90
2018-08-03T12:12:26.036Z,29.90
2018-08-03T12:14:54.185Z,29.70
2018-08-03T12:17:22.417Z,29.80
2018-08-03T12:22:18.968Z,30.60
2018-08-03T12:27:15.049Z,31.40
2018-08-03T12:29:43.228Z,31.60
2018-08-03T12:32:11.373Z,31.80
2018-08-03T12:37:07.434Z,32.20
2018-08-03T12:39:35.589Z,32.50
2018-08-03T12:47:00.345Z,32.30
2018-08-03T12:49:28.518Z,31.80
2018-08-03T12:51:56.668Z,31.40
2018-08-03T12:54:24.809Z,31.00
2018-08-03T12:56:53.046Z,30.80
2018-08-03T12:59:21.176Z,30.60
2018-08-03T13:01:49.332Z,30.80
2018-08-03T13:04:17.501Z,31.10
2018-08-03T13:06:45.628Z,31.40
2018-08-03T13:09:13.761Z,31.80
2018-08-03T13:11:41.912Z,32.00
2018-08-03T13:14:10.045Z,31.90
2018-08-03T13:16:38.197Z,31.70
2018-08-03T13:19:06.333Z,31.40
2018-08-03T13:21:36.812Z,31.00
2018-08-03T13:26:33.181Z,30.40
2018-08-03T13:29:01.545Z,30.30
2018-08-03T13:33:58.248Z,30.90
2018-08-03T13:36:27.651Z,31.10
2018-08-03T13:41:23.713Z,31.70
2018-08-03T13:43:51.844Z,31.80
2018-08-03T13:46:20.043Z,31.80
2018-08-03T13:48:48.780Z,31.80
2018-08-03T13:53:46.464Z,31.90
2018-08-03T13:58:44.368Z,31.80
2018-08-03T14:01:24.099Z,31.80
2018-08-03T14:03:52.401Z,31.80
2018-08-03T14:06:20.573Z,31.70
2018-08-03T14:08:49.453Z,31.70
2018-08-03T14:11:18.362Z,31.80
2018-08-03T14:13:46.833Z,31.80
2018-08-03T14:16:15.088Z,32.00
2018-08-03T14:21:12.568Z,32.00
2018-08-03T14:26:08.625Z,32.00
2018-08-03T14:28:36.876Z,31.80
2018-08-03T14:31:05.094Z,31.90
2018-08-03T14:33:33.257Z,31.90
2018-08-03T14:36:01.397Z,31.90
2018-08-03T14:38:29.545Z,32.00
2018-08-03T14:40:57.685Z,32.20
2018-08-03T14:43:25.834Z,32.20
2018-08-03T14:48:21.906Z,32.20
2018-08-03T14:50:50.061Z,32.00
2018-08-03T14:53:18.213Z,32.00
2018-08-03T14:55:46.365Z,31.90
2018-08-03T14:58:14.501Z,31.80
2018-08-03T15:00:42.760Z,31.90
2018-08-03T15:03:10.904Z,31.80
2018-08-03T15:05:39.060Z,31.70
2018-08-03T15:08:07.308Z,31.60
2018-08-03T15:10:35.482Z,31.50
2018-08-03T15:13:03.627Z,31.50
2018-08-03T15:17:59.688Z,31.40
2018-08-03T15:20:27.836Z,31.40
2018-08-03T15:25:23.892Z,31.30
2018-08-03T15:27:52.035Z,31.30
2018-08-03T15:30:20.190Z,31.30
2018-08-03T15:32:48.325Z,31.30
2018-08-03T15:35:16.485Z,31.30
2018-08-03T15:40:12.662Z,31.30
2018-08-03T15:42:40.796Z,31.30
2018-08-03T15:47:37.490Z,31.30
2018-08-03T15:50:05.953Z,31.30
2018-08-03T15:52:34.259Z,31.30
2018-08-03T15:55:02.426Z,31.40
2018-08-03T15:57:30.593Z,31.20
2018-08-03T15:59:58.733Z,30.90
2018-08-03T16:02:26.881Z,30.60
2018-08-03T16:04:55.022Z,30.50
2018-08-03T16:07:23.169Z,30.30
2018-08-03T16:12:19.225Z,30.30
2018-08-03T16:14:47.372Z,30.20
2018-08-03T16:17:15.504Z,30.10
2018-08-03T16:19:43.644Z,30.10
2018-08-03T16:22:11.809Z,30.10
2018-08-03T16:24:39.949Z,30.00
2018-08-03T16:27:08.098Z,29.90
2018-08-03T16:29:36.256Z,29.80
2018-08-03T16:32:04.389Z,29.70
2018-08-03T16:34:32.541Z,29.70
2018-08-03T16:37:00.753Z,29.70
2018-08-03T16:41:56.889Z,29.80
2018-08-03T16:44:25.057Z,29.90
2018-08-03T16:48:17.437Z,30.00
2018-08-03T16:50:45.590Z,30.00
2018-08-03T16:53:13.747Z,30.40
2018-08-03T16:55:41.889Z,30.50
2018-08-03T16:58:10.259Z,30.60
2018-08-03T17:00:38.411Z,30.70
2018-08-03T17:05:34.459Z,30.80
2018-08-03T17:08:02.592Z,30.70
2018-08-03T17:10:30.789Z,30.70
2018-08-03T17:12:58.888Z,30.60
2018-08-03T17:15:27.041Z,30.50
2018-08-03T17:20:24.013Z,30.30
2018-08-03T17:22:52.161Z,30.20
2018-08-03T17:25:20.390Z,30.10
2018-08-03T17:27:48.563Z,30.00
2018-08-03T17:30:16.697Z,30.00
2018-08-03T17:35:12.840Z,29.70
2018-08-03T17:40:08.893Z,29.60
2018-08-03T17:45:05.267Z,29.50
2018-08-03T17:47:33.432Z,29.40
2018-08-03T17:50:01.621Z,29.30
2018-08-03T17:52:29.761Z,29.30
2018-08-03T17:57:26.934Z,29.20
2018-08-03T18:02:23.112Z,29.00
2018-08-03T18:04:51.301Z,28.90
2018-08-03T18:07:19.428Z,28.90
2018-08-03T18:12:16.425Z,28.90
2018-08-03T18:14:44.571Z,28.80
2018-08-03T18:19:40.633Z,28.70
2018-08-03T18:22:08.801Z,28.60
2018-08-03T18:24:36.980Z,28.60
2018-08-03T18:27:05.168Z,28.50
2018-08-03T18:29:33.329Z,28.50
2018-08-03T18:32:01.485Z,28.40
2018-08-03T18:36:57.536Z,28.30
2018-08-03T18:39:25.680Z,28.20
2018-08-03T18:41:53.837Z,28.00
2018-08-03T18:44:21.982Z,27.90
2018-08-03T18:46:50.120Z,27.70
2018-08-03T18:51:46.173Z,27.60
2018-08-03T18:56:42.451Z,27.30
2018-08-03T18:59:10.605Z,27.10
2018-08-03T19:01:38.860Z,27.00
2018-08-03T19:06:35.048Z,26.80
2018-08-03T19:09:03.721Z,26.70
2018-08-03T19:11:31.869Z,26.50
2018-08-03T19:16:27.953Z,26.40
2018-08-03T19:18:56.101Z,26.30
2018-08-03T19:21:24.252Z,26.10
2018-08-03T19:23:54.005Z,26.00
2018-08-03T19:26:22.161Z,26.00
2018-08-03T19:31:22.716Z,25.80
2018-08-03T19:33:50.877Z,25.80
2018-08-03T19:36:19.421Z,25.70
2018-08-03T19:38:48.350Z,25.70
2018-08-03T19:41:17.796Z,25.60
2018-08-03T19:43:46.385Z,25.60
2018-08-03T19:46:14.552Z,25.50
2018-08-03T19:48:42.710Z,25.50
2018-08-03T19:51:10.986Z,25.40
2018-08-03T19:53:39.493Z,25.30
2018-08-03T19:56:08.057Z,25.30
2018-08-03T19:58:37.206Z,25.30
2018-08-03T20:01:05.484Z,25.20
2018-08-03T20:03:33.633Z,25.20
2018-08-03T20:06:02.200Z,25.10
2018-08-03T20:08:30.337Z,25.10
2018-08-03T20:13:26.557Z,24.90
2018-08-03T20:15:54.650Z,24.80
2018-08-03T20:18:22.806Z,24.70
2018-08-03T20:20:50.961Z,24.70
2018-08-03T20:23:19.113Z,24.60
2018-08-03T20:25:47.291Z,24.60
2018-08-03T20:28:15.448Z,24.50
2018-08-03T20:30:44.529Z,24.40
2018-08-03T20:33:12.641Z,24.40
2018-08-03T20:35:40.794Z,24.30
2018-08-03T20:38:09.357Z,24.20
2018-08-03T20:40:37.524Z,24.20
2018-08-03T20:43:06.597Z,24.10
2018-08-03T20:45:35.354Z,24.00
2018-08-03T20:48:04.733Z,23.90
2018-08-03T20:50:33.853Z,23.80
2018-08-03T20:53:02.420Z,23.70
2018-08-03T20:55:30.685Z,23.70
2018-08-03T20:57:59.133Z,23.60
2018-08-03T21:00:28.837Z,23.50
2018-08-03T21:02:57.800Z,23.40
2018-08-03T21:05:27.019Z,23.40
2018-08-03T21:07:55.181Z,23.30
2018-08-03T21:10:23.866Z,23.30
2018-08-03T21:12:52.429Z,23.20
2018-08-03T21:15:20.581Z,23.10
2018-08-03T21:20:17.994Z,23.00
2018-08-03T21:22:46.127Z,22.90
2018-08-03T21:25:14.293Z,22.80
2018-08-03T21:27:42.440Z,22.70
2018-08-03T21:30:11.290Z,22.60
2018-08-03T21:35:07.523Z,22.50
2018-08-03T21:40:04.508Z,22.30
2018-08-03T21:42:33.924Z,22.30
2018-08-03T21:45:02.338Z,22.20
2018-08-03T21:47:30.497Z,22.10
2018-08-03T21:50:02.914Z,22.10
2018-08-03T21:52:32.976Z,22.00
2018-08-03T21:55:03.507Z,22.00
2018-08-03T21:57:31.652Z,22.00
2018-08-03T22:02:27.741Z,21.90
2018-08-03T22:04:55.876Z,21.90
2018-08-03T22:07:24.062Z,21.80
2018-08-03T22:12:20.106Z,21.80
2018-08-03T22:14:48.240Z,21.80
2018-08-03T22:17:16.388Z,21.70
2018-08-03T22:19:44.528Z,21.60
2018-08-03T22:22:12.680Z,21.60
2018-08-03T22:27:08.744Z,21.30
2018-08-03T22:29:36.888Z,21.30
2018-08-03T22:32:05.043Z,21.20
2018-08-03T22:34:33.176Z,21.20
2018-08-03T22:37:01.329Z,21.20
2018-08-03T22:39:29.476Z,21.10
2018-08-03T22:41:58.637Z,21.10
2018-08-03T22:44:26.777Z,21.10
2018-08-03T22:46:54.939Z,21.10
2018-08-03T22:51:51.004Z,21.00
2018-08-03T22:54:19.164Z,20.90
2018-08-03T22:56:47.311Z,20.80
2018-08-03T22:59:15.456Z,20.80
2018-08-03T23:01:43.620Z,20.80
2018-08-03T23:04:11.768Z,20.70
2018-08-03T23:06:39.931Z,20.70
2018-08-03T23:11:36.680Z,20.60
2018-08-03T23:14:04.838Z,20.60
2018-08-03T23:16:33.049Z,20.60
2018-08-03T23:19:01.201Z,20.50
2018-08-03T23:21:29.393Z,20.50
2018-08-03T23:23:57.547Z,20.50
2018-08-03T23:26:25.700Z,20.40
2018-08-03T23:28:53.841Z,20.40
2018-08-03T23:31:21.997Z,20.40
2018-08-03T23:33:50.144Z,20.40
2018-08-03T23:36:18.295Z,20.30
2018-08-03T23:38:46.448Z,20.20
2018-08-03T23:41:14.604Z,20.10
2018-08-03T23:43:42.752Z,20.10
2018-08-03T23:46:10.925Z,20.10
2018-08-03T23:48:39.066Z,20.00
2018-08-03T23:51:07.212Z,20.00
2018-08-03T23:53:35.368Z,20.00
2018-08-03T23:56:03.560Z,20.00
2018-08-03T23:58:31.700Z,20.00
